createdAt,value
2019-05-06T00:00:58.753Z,3.30
2019-05-06T00:03:24.777Z,3.30
2019-05-06T00:05:54.368Z,3.20
2019-05-06T00:08:23.666Z,3.20
2019-05-06T00:10:54.087Z,3.10
2019-05-06T00:13:24.164Z,3.00
2019-05-06T00:15:54.379Z,3.00
2019-05-06T00:18:24.496Z,3.00
2019-05-06T00:20:54.822Z,3.00
2019-05-06T00:23:25.041Z,3.00
2019-05-06T00:26:13.514Z,3.00
2019-05-06T00:28:58.279Z,3.00
2019-05-06T00:31:26.678Z,2.90
2019-05-06T00:33:55.073Z,2.80
2019-05-06T00:36:23.853Z,2.70
2019-05-06T00:38:54.074Z,2.60
2019-05-06T00:41:29.810Z,2.50
2019-05-06T00:43:58.443Z,2.60
2019-05-06T00:46:26.847Z,2.50
2019-05-06T00:48:55.252Z,2.40
2019-05-06T00:51:24.335Z,2.40
2019-05-06T00:54:14.256Z,2.30
2019-05-06T00:56:44.633Z,2.20
2019-05-06T00:59:14.341Z,2.20
2019-05-06T01:01:43.516Z,2.20
2019-05-06T01:04:13.953Z,2.10
2019-05-06T01:06:44.075Z,2.10
2019-05-06T01:09:14.470Z,2.10
2019-05-06T01:11:44.890Z,2.00
2019-05-06T01:14:23.434Z,1.90
2019-05-06T01:16:51.676Z,1.80
2019-05-06T01:19:20.046Z,1.80
2019-05-06T01:21:48.467Z,1.70
2019-05-06T01:24:17.103Z,1.70
2019-05-06T01:26:45.494Z,1.70
2019-05-06T01:29:14.557Z,1.80
2019-05-06T01:31:45.909Z,1.80
2019-05-06T01:34:13.826Z,1.60
2019-05-06T01:36:43.761Z,1.60
2019-05-06T01:39:19.657Z,1.60
2019-05-06T01:41:53.673Z,1.60
2019-05-06T01:44:24.287Z,1.50
2019-05-06T01:46:54.065Z,1.50
2019-05-06T01:49:24.366Z,1.50
2019-05-06T01:51:54.607Z,1.50
2019-05-06T01:54:24.770Z,1.50
2019-05-06T01:56:53.807Z,1.50
2019-05-06T01:59:24.447Z,1.50
2019-05-06T02:01:58.128Z,1.50
2019-05-06T02:04:24.308Z,1.80
2019-05-06T02:06:54.573Z,1.80
2019-05-06T02:09:24.710Z,1.80
2019-05-06T02:11:53.629Z,1.80
2019-05-06T02:14:24.483Z,1.80
2019-05-06T02:16:54.354Z,1.70
2019-05-06T02:19:24.200Z,1.70
2019-05-06T02:21:54.731Z,1.70
2019-05-06T02:24:27.753Z,1.80
2019-05-06T02:26:56.167Z,1.70
2019-05-06T02:29:26.904Z,1.60
2019-05-06T02:32:24.779Z,1.70
2019-05-06T02:34:54.636Z,1.50
2019-05-06T02:37:28.730Z,1.40
2019-05-06T02:39:57.132Z,1.30
2019-05-06T02:42:25.519Z,1.20
2019-05-06T02:44:54.506Z,1.10
2019-05-06T02:47:24.783Z,1.00
2019-05-06T02:49:54.967Z,1.00
2019-05-06T02:52:23.387Z,0.90
2019-05-06T02:54:53.611Z,0.90
2019-05-06T02:57:23.850Z,0.90
2019-05-06T02:59:55.410Z,0.90
2019-05-06T03:02:38.026Z,0.90
2019-05-06T03:04:52.987Z,0.90
2019-05-06T03:07:23.290Z,0.90
2019-05-06T03:09:53.243Z,1.00
2019-05-06T03:12:22.894Z,1.20
2019-05-06T03:14:53.231Z,1.40
2019-05-06T03:17:23.471Z,1.50
2019-05-06T03:19:53.415Z,1.50
2019-05-06T03:22:34.421Z,1.50
2019-05-06T03:25:06.832Z,1.50
2019-05-06T03:27:34.270Z,1.40
2019-05-06T03:30:04.081Z,1.50
2019-05-06T03:32:41.151Z,1.50
2019-05-06T03:35:24.843Z,1.60
2019-05-06T03:37:33.609Z,1.70
2019-05-06T03:40:02.935Z,1.70
2019-05-06T03:42:33.471Z,1.60
2019-05-06T03:45:04.404Z,1.60
2019-05-06T03:47:34.888Z,1.60
2019-05-06T03:50:04.960Z,1.60
2019-05-06T03:52:34.195Z,1.60
2019-05-06T03:55:03.773Z,1.60
2019-05-06T03:57:33.249Z,1.60
2019-05-06T04:00:04.999Z,1.60
2019-05-06T04:02:33.957Z,1.70
2019-05-06T04:05:03.939Z,1.80
2019-05-06T04:07:34.123Z,1.80
2019-05-06T04:10:03.517Z,1.80
2019-05-06T04:12:34.178Z,1.70
2019-05-06T04:15:03.982Z,1.70
2019-05-06T04:17:44.183Z,1.70
2019-05-06T04:20:23.600Z,1.80
2019-05-06T04:22:53.260Z,1.90
2019-05-06T04:25:43.461Z,1.90
2019-05-06T04:28:25.841Z,1.90
2019-05-06T04:30:54.985Z,1.90
2019-05-06T04:33:24.022Z,2.00
2019-05-06T04:35:54.176Z,1.90
2019-05-06T04:38:23.693Z,2.00
2019-05-06T04:40:54.130Z,2.10
2019-05-06T04:43:26.747Z,2.10
2019-05-06T04:45:54.217Z,2.20
2019-05-06T04:48:23.814Z,2.20
2019-05-06T04:50:53.615Z,2.30
2019-05-06T04:53:26.407Z,2.30
2019-05-06T04:55:53.890Z,2.40
2019-05-06T04:58:23.430Z,2.40
2019-05-06T05:00:53.124Z,2.50
2019-05-06T05:03:22.782Z,2.50
2019-05-06T05:05:53.049Z,2.50
2019-05-06T05:08:23.856Z,2.60
2019-05-06T05:11:03.593Z,2.60
2019-05-06T05:13:34.199Z,2.70
2019-05-06T05:16:22.188Z,2.80
2019-05-06T05:19:07.314Z,2.80
2019-05-06T05:21:35.972Z,2.90
2019-05-06T05:24:04.442Z,2.90
2019-05-06T05:26:32.845Z,3.00
2019-05-06T05:29:02.821Z,3.10
2019-05-06T05:31:33.168Z,3.10
2019-05-06T05:34:02.229Z,3.10
2019-05-06T05:36:32.816Z,3.10
2019-05-06T05:39:03.284Z,3.30
2019-05-06T05:41:33.184Z,3.40
2019-05-06T05:44:03.942Z,3.60
2019-05-06T05:46:33.052Z,3.60
2019-05-06T05:49:03.429Z,3.70
2019-05-06T05:51:32.406Z,3.80
2019-05-06T05:54:02.198Z,4.00
2019-05-06T05:56:33.036Z,4.20
2019-05-06T05:59:03.297Z,4.40
2019-05-06T06:01:32.640Z,4.60
2019-05-06T06:04:03.031Z,5.30
2019-05-06T06:06:33.204Z,5.80
2019-05-06T06:09:03.132Z,6.00
2019-05-06T06:11:33.346Z,6.20
2019-05-06T06:14:03.618Z,6.50
2019-05-06T06:16:33.742Z,6.20
2019-05-06T06:19:22.049Z,6.40
2019-05-06T06:21:52.399Z,6.70
2019-05-06T06:24:25.282Z,6.80
2019-05-06T06:26:53.686Z,6.70
2019-05-06T06:29:22.798Z,6.60
2019-05-06T06:32:09.719Z,6.60
2019-05-06T06:34:52.003Z,6.70
2019-05-06T06:37:27.247Z,6.70
2019-05-06T06:39:56.200Z,6.70
2019-05-06T06:42:24.935Z,6.70
2019-05-06T06:44:54.016Z,6.90
2019-05-06T06:47:22.653Z,7.30
2019-05-06T06:49:53.264Z,7.30
2019-05-06T06:52:23.056Z,7.30
2019-05-06T06:54:52.653Z,7.10
2019-05-06T06:57:25.420Z,7.00
2019-05-06T07:00:07.609Z,6.80
2019-05-06T07:02:38.746Z,6.70
2019-05-06T07:05:24.910Z,6.60
2019-05-06T07:07:46.763Z,6.70
2019-05-06T07:10:32.401Z,6.70
2019-05-06T07:13:02.907Z,6.80
2019-05-06T07:15:33.415Z,7.00
2019-05-06T07:18:02.292Z,7.20
2019-05-06T07:20:38.555Z,7.70
2019-05-06T07:23:26.413Z,7.90
2019-05-06T07:25:55.114Z,8.00
2019-05-06T07:28:24.495Z,8.20
2019-05-06T07:30:54.307Z,8.60
2019-05-06T07:33:23.097Z,8.90
2019-05-06T07:35:52.999Z,9.30
2019-05-06T07:38:23.080Z,9.20
2019-05-06T07:40:53.566Z,9.00
2019-05-06T07:43:35.608Z,9.70
2019-05-06T07:46:06.128Z,10.50
2019-05-06T07:48:34.568Z,10.80
2019-05-06T07:51:03.183Z,10.90
2019-05-06T07:53:32.096Z,12.10
2019-05-06T07:56:03.496Z,12.50
2019-05-06T07:58:32.257Z,12.00
2019-05-06T08:01:02.742Z,11.70
2019-05-06T08:03:33.003Z,11.40
2019-05-06T08:06:02.648Z,12.10
2019-05-06T08:08:33.514Z,12.20
2019-05-06T08:11:02.707Z,12.00
2019-05-06T08:13:32.265Z,11.10
2019-05-06T08:16:02.198Z,10.60
2019-05-06T08:18:32.962Z,9.90
2019-05-06T08:21:02.691Z,9.50
2019-05-06T08:23:38.681Z,9.10
2019-05-06T08:26:12.878Z,9.30
2019-05-06T08:28:41.462Z,8.90
2019-05-06T08:31:08.291Z,8.80
2019-05-06T08:33:36.991Z,8.60
2019-05-06T08:36:11.760Z,8.90
2019-05-06T08:38:55.009Z,9.10
2019-05-06T08:41:23.549Z,9.00
2019-05-06T08:43:52.860Z,8.90
2019-05-06T08:46:23.450Z,8.80
2019-05-06T08:48:52.575Z,9.00
2019-05-06T08:51:25.798Z,8.80
2019-05-06T08:53:59.158Z,9.10
2019-05-06T08:56:28.063Z,8.80
2019-05-06T08:58:56.563Z,9.40
2019-05-06T09:01:26.869Z,9.70
2019-05-06T09:04:08.298Z,9.80
2019-05-06T09:06:30.193Z,10.10
2019-05-06T09:08:56.904Z,10.30
2019-05-06T09:11:25.934Z,10.30
2019-05-06T09:13:54.511Z,10.60
2019-05-06T09:16:23.356Z,10.10
2019-05-06T09:18:53.377Z,10.00
2019-05-06T09:21:22.615Z,10.20
2019-05-06T09:23:53.155Z,10.00
2019-05-06T09:26:28.875Z,10.00
2019-05-06T09:28:59.365Z,9.80
2019-05-06T09:31:32.050Z,9.50
2019-05-06T09:34:13.164Z,9.50
2019-05-06T09:36:51.696Z,9.20
2019-05-06T09:39:14.603Z,9.00
2019-05-06T09:41:46.505Z,9.00
2019-05-06T09:44:13.217Z,9.30
2019-05-06T09:46:43.261Z,9.20
2019-05-06T09:49:15.987Z,9.10
2019-05-06T09:51:46.605Z,9.20
2019-05-06T09:54:16.673Z,9.20
2019-05-06T09:56:55.246Z,9.60
2019-05-06T09:59:23.652Z,9.70
2019-05-06T10:01:52.768Z,9.20
2019-05-06T10:04:21.499Z,9.00
2019-05-06T10:06:57.247Z,8.60
2019-05-06T10:09:20.255Z,8.70
2019-05-06T10:11:48.757Z,8.90
2019-05-06T10:14:17.195Z,9.20
2019-05-06T10:16:45.902Z,9.90
2019-05-06T10:19:14.651Z,9.80
2019-05-06T10:21:43.231Z,10.00
2019-05-06T10:24:11.902Z,10.20
2019-05-06T10:26:43.189Z,10.90
2019-05-06T10:29:34.983Z,12.30
2019-05-06T10:32:07.744Z,11.80
2019-05-06T10:34:37.982Z,11.70
2019-05-06T10:37:22.289Z,11.20
2019-05-06T10:39:56.962Z,11.40
2019-05-06T10:42:28.616Z,10.70
2019-05-06T10:45:05.902Z,10.80
2019-05-06T10:47:34.442Z,11.30
2019-05-06T10:50:02.877Z,12.40
2019-05-06T10:52:47.951Z,12.30
2019-05-06T10:55:16.604Z,12.70
2019-05-06T10:57:46.793Z,11.90
2019-05-06T11:00:15.775Z,11.30
2019-05-06T11:02:49.022Z,10.90
2019-05-06T11:05:17.747Z,10.60
2019-05-06T11:07:46.580Z,12.30
2019-05-06T11:10:23.714Z,13.40
2019-05-06T11:12:45.349Z,14.50
2019-05-06T11:15:14.089Z,14.50
2019-05-06T11:17:43.663Z,14.30
2019-05-06T11:20:14.032Z,14.20
2019-05-06T11:22:43.608Z,13.90
2019-05-06T11:25:12.413Z,13.30
2019-05-06T11:27:42.565Z,13.00
2019-05-06T11:30:13.129Z,12.60
2019-05-06T11:32:44.458Z,12.00
2019-05-06T11:35:17.687Z,11.30
2019-05-06T11:37:50.765Z,10.70
2019-05-06T11:40:18.619Z,10.80
2019-05-06T11:42:47.118Z,10.60
2019-05-06T11:45:15.927Z,10.50
2019-05-06T11:47:44.938Z,10.20
2019-05-06T11:50:13.608Z,9.90
2019-05-06T11:52:43.401Z,10.10
2019-05-06T11:55:13.896Z,10.40
2019-05-06T11:57:44.656Z,10.50
2019-05-06T12:00:15.703Z,10.60
2019-05-06T12:02:48.090Z,10.70
2019-05-06T12:05:14.772Z,10.60
2019-05-06T12:07:53.151Z,10.50
2019-05-06T12:10:13.665Z,10.20
2019-05-06T12:12:43.996Z,10.30
2019-05-06T12:15:13.289Z,10.70
2019-05-06T12:17:42.268Z,10.50
2019-05-06T12:20:13.169Z,10.60
2019-05-06T12:22:42.481Z,10.60
2019-05-06T12:25:15.268Z,10.80
2019-05-06T12:27:45.265Z,11.00
2019-05-06T12:30:22.755Z,11.00
2019-05-06T12:33:04.166Z,11.00
2019-05-06T12:35:34.317Z,10.60
2019-05-06T12:38:06.721Z,10.30
2019-05-06T12:40:34.849Z,10.60
2019-05-06T12:43:22.570Z,10.60
2019-05-06T12:45:58.553Z,10.30
2019-05-06T12:48:28.610Z,9.90
2019-05-06T12:50:58.769Z,9.70
2019-05-06T12:53:27.267Z,9.90
2019-05-06T12:55:55.762Z,9.80
2019-05-06T12:58:24.429Z,9.80
2019-05-06T13:00:54.234Z,10.10
2019-05-06T13:03:23.577Z,10.30
2019-05-06T13:05:56.830Z,10.30
2019-05-06T13:08:32.491Z,10.80
2019-05-06T13:10:55.486Z,11.00
2019-05-06T13:13:23.977Z,11.20
2019-05-06T13:15:52.916Z,11.30
2019-05-06T13:18:23.140Z,11.90
2019-05-06T13:20:52.623Z,11.90
2019-05-06T13:23:35.121Z,11.20
2019-05-06T13:26:02.967Z,10.70
2019-05-06T13:28:33.478Z,10.60
2019-05-06T13:31:16.052Z,10.60
2019-05-06T13:33:44.339Z,10.70
2019-05-06T13:36:13.406Z,11.20
2019-05-06T13:38:42.694Z,11.30
2019-05-06T13:41:12.678Z,11.40
2019-05-06T13:43:43.663Z,11.00
2019-05-06T13:46:13.983Z,10.60
2019-05-06T13:48:53.282Z,10.30
2019-05-06T13:51:23.411Z,10.10
2019-05-06T13:53:52.910Z,10.20
2019-05-06T13:56:21.618Z,9.80
2019-05-06T13:58:52.425Z,9.90
2019-05-06T14:01:23.045Z,9.90
2019-05-06T14:03:52.480Z,10.00
2019-05-06T14:06:21.019Z,9.90
2019-05-06T14:08:49.473Z,10.00
2019-05-06T14:11:18.400Z,9.80
2019-05-06T14:13:47.844Z,9.90
2019-05-06T14:16:16.350Z,9.80
2019-05-06T14:18:45.119Z,9.80
2019-05-06T14:21:14.019Z,9.90
2019-05-06T14:23:44.341Z,10.10
2019-05-06T14:26:14.603Z,10.00
2019-05-06T14:29:02.372Z,10.20
2019-05-06T14:31:36.806Z,10.10
2019-05-06T14:34:05.199Z,10.00
2019-05-06T14:36:33.994Z,10.00
2019-05-06T14:39:04.917Z,10.20
2019-05-06T14:41:32.926Z,10.40
2019-05-06T14:44:04.918Z,10.30
2019-05-06T14:46:33.422Z,10.40
2019-05-06T14:49:04.241Z,10.30
2019-05-06T14:51:33.851Z,10.40
2019-05-06T14:54:03.938Z,10.50
2019-05-06T14:56:42.625Z,10.80
2019-05-06T14:59:12.463Z,10.90
2019-05-06T15:01:45.100Z,10.60
2019-05-06T15:04:12.547Z,10.80
2019-05-06T15:06:42.535Z,10.70
2019-05-06T15:09:13.417Z,10.70
2019-05-06T15:11:43.380Z,10.80
2019-05-06T15:14:13.040Z,10.80
2019-05-06T15:16:42.335Z,10.40
2019-05-06T15:19:16.751Z,10.80
2019-05-06T15:21:45.197Z,11.10
2019-05-06T15:24:14.541Z,10.90
2019-05-06T15:26:43.142Z,11.00
2019-05-06T15:29:12.643Z,11.10
2019-05-06T15:31:49.033Z,11.50
2019-05-06T15:34:19.244Z,11.10
2019-05-06T15:36:58.325Z,11.40
2019-05-06T15:39:26.768Z,11.60
2019-05-06T15:41:55.224Z,11.30
2019-05-06T15:44:23.625Z,11.10
2019-05-06T15:46:52.800Z,11.00
2019-05-06T15:49:22.344Z,10.50
2019-05-06T15:51:52.274Z,10.30
2019-05-06T15:54:22.650Z,10.00
2019-05-06T15:56:53.274Z,9.90
2019-05-06T15:59:22.969Z,9.80
2019-05-06T16:01:53.163Z,9.90
2019-05-06T16:04:22.905Z,10.00
2019-05-06T16:06:52.939Z,10.20
2019-05-06T16:09:23.482Z,10.30
2019-05-06T16:11:53.491Z,10.40
2019-05-06T16:14:23.030Z,10.60
2019-05-06T16:16:52.828Z,10.70
2019-05-06T16:19:22.781Z,10.70
2019-05-06T16:21:52.352Z,10.60
2019-05-06T16:24:28.676Z,10.50
2019-05-06T16:26:57.162Z,10.60
2019-05-06T16:29:32.140Z,10.40
2019-05-06T16:32:02.166Z,10.50
2019-05-06T16:34:32.373Z,10.50
2019-05-06T16:37:01.937Z,10.30
2019-05-06T16:39:32.549Z,10.20
2019-05-06T16:42:03.635Z,10.20
2019-05-06T16:44:31.414Z,10.20
2019-05-06T16:46:59.820Z,10.10
2019-05-06T16:49:28.222Z,10.20
2019-05-06T16:51:56.895Z,10.20
2019-05-06T16:54:26.213Z,10.20
2019-05-06T16:57:06.574Z,10.10
2019-05-06T16:59:34.982Z,10.00
2019-05-06T17:02:05.059Z,9.80
2019-05-06T17:04:46.695Z,9.70
2019-05-06T17:07:15.101Z,9.60
2019-05-06T17:09:43.511Z,9.60
2019-05-06T17:12:12.781Z,9.50
2019-05-06T17:14:42.834Z,9.50
2019-05-06T17:17:11.412Z,9.40
2019-05-06T17:19:42.070Z,9.40
2019-05-06T17:22:12.216Z,9.40
2019-05-06T17:24:42.036Z,9.30
2019-05-06T17:27:12.053Z,9.30
2019-05-06T17:29:51.412Z,9.20
2019-05-06T17:32:24.430Z,9.00
2019-05-06T17:34:57.446Z,8.90
2019-05-06T17:37:42.765Z,8.70
2019-05-06T17:40:14.021Z,8.50
2019-05-06T17:42:43.055Z,8.30
2019-05-06T17:45:29.390Z,8.00
2019-05-06T17:48:02.915Z,7.80
2019-05-06T17:50:32.710Z,7.60
2019-05-06T17:53:01.822Z,7.40
2019-05-06T17:55:32.258Z,7.40
2019-05-06T17:58:02.429Z,7.30
2019-05-06T18:00:32.332Z,7.20
2019-05-06T18:03:02.522Z,7.10
2019-05-06T18:05:32.534Z,7.10
2019-05-06T18:08:02.893Z,7.10
2019-05-06T18:10:33.506Z,7.10
2019-05-06T18:13:03.124Z,7.10
2019-05-06T18:15:32.625Z,7.10
2019-05-06T18:18:02.159Z,7.20
2019-05-06T18:20:33.351Z,7.20
2019-05-06T18:23:02.059Z,7.10
2019-05-06T18:25:32.819Z,7.10
2019-05-06T18:28:00.857Z,7.10
2019-05-06T18:30:33.666Z,7.10
2019-05-06T18:32:59.698Z,7.10
2019-05-06T18:35:28.128Z,7.20
2019-05-06T18:37:56.515Z,7.10
2019-05-06T18:40:24.979Z,6.90
2019-05-06T18:42:53.624Z,7.00
2019-05-06T18:45:22.163Z,6.90
2019-05-06T18:47:53.023Z,7.00
2019-05-06T18:50:22.028Z,6.90
2019-05-06T18:52:52.854Z,6.90
2019-05-06T18:55:22.356Z,6.90
2019-05-06T18:57:52.784Z,6.90
2019-05-06T19:00:22.498Z,7.00
2019-05-06T19:02:52.217Z,6.90
2019-05-06T19:05:27.127Z,6.90
2019-05-06T19:07:55.622Z,6.80
2019-05-06T19:10:28.338Z,6.80
2019-05-06T19:12:56.744Z,6.80
2019-05-06T19:15:25.974Z,6.80
2019-05-06T19:17:54.366Z,6.80
2019-05-06T19:20:24.457Z,6.90
2019-05-06T19:22:53.653Z,6.90
2019-05-06T19:25:22.684Z,6.90
2019-05-06T19:27:53.091Z,6.90
2019-05-06T19:30:22.453Z,6.80
2019-05-06T19:32:52.724Z,6.80
2019-05-06T19:35:24.977Z,6.80
2019-05-06T19:37:53.473Z,6.90
2019-05-06T19:40:22.897Z,6.80
2019-05-06T19:42:53.278Z,6.90
2019-05-06T19:45:22.432Z,6.90
2019-05-06T19:47:52.303Z,6.90
2019-05-06T19:50:23.628Z,6.90
2019-05-06T19:52:52.855Z,6.90
2019-05-06T19:55:23.069Z,6.90
2019-05-06T19:57:52.642Z,6.80
2019-05-06T20:00:22.853Z,6.80
2019-05-06T20:02:52.132Z,6.80
2019-05-06T20:05:25.112Z,6.80
2019-05-06T20:08:13.413Z,6.80
2019-05-06T20:10:43.453Z,6.70
2019-05-06T20:13:13.555Z,6.70
2019-05-06T20:15:42.854Z,6.60
2019-05-06T20:18:11.390Z,6.60
2019-05-06T20:20:42.089Z,6.50
2019-05-06T20:23:12.363Z,6.60
2019-05-06T20:25:51.932Z,6.60
2019-05-06T20:28:22.572Z,6.60
2019-05-06T20:30:52.336Z,6.60
2019-05-06T20:33:22.710Z,6.60
2019-05-06T20:35:52.601Z,6.60
2019-05-06T20:38:23.193Z,6.50
2019-05-06T20:40:52.952Z,6.50
2019-05-06T20:43:23.906Z,6.50
2019-05-06T20:45:52.130Z,6.50
2019-05-06T20:48:23.223Z,6.40
2019-05-06T20:50:52.373Z,6.40
2019-05-06T20:53:22.610Z,6.50
2019-05-06T20:55:53.053Z,6.40
2019-05-06T20:58:22.972Z,6.40
2019-05-06T21:00:52.138Z,6.40
2019-05-06T21:03:22.104Z,6.40
2019-05-06T21:05:50.812Z,6.40
2019-05-06T21:08:19.366Z,6.40
2019-05-06T21:10:49.721Z,6.40
2019-05-06T21:13:29.443Z,6.30
2019-05-06T21:15:48.018Z,6.30
2019-05-06T21:18:16.498Z,6.30
2019-05-06T21:20:45.156Z,6.30
2019-05-06T21:23:13.817Z,6.30
2019-05-06T21:25:43.079Z,6.20
2019-05-06T21:28:12.208Z,6.20
2019-05-06T21:30:42.792Z,6.20
2019-05-06T21:33:12.423Z,6.30
2019-05-06T21:35:42.410Z,6.30
2019-05-06T21:38:12.111Z,6.30
2019-05-06T21:40:43.177Z,6.20
2019-05-06T21:43:13.074Z,6.30
2019-05-06T21:45:42.386Z,6.30
2019-05-06T21:48:13.414Z,6.20
2019-05-06T21:50:42.644Z,6.20
2019-05-06T21:53:14.343Z,6.20
2019-05-06T21:55:41.546Z,6.20
2019-05-06T21:58:12.251Z,6.20
2019-05-06T22:00:45.495Z,6.20
2019-05-06T22:03:13.928Z,6.20
2019-05-06T22:05:42.401Z,6.10
2019-05-06T22:08:12.842Z,6.10
2019-05-06T22:10:42.117Z,6.10
2019-05-06T22:13:14.254Z,6.10
2019-05-06T22:15:42.078Z,6.00
2019-05-06T22:18:12.509Z,6.00
2019-05-06T22:20:59.426Z,5.90
2019-05-06T22:23:29.506Z,5.90
2019-05-06T22:26:11.087Z,5.90
2019-05-06T22:28:28.095Z,5.80
2019-05-06T22:30:56.489Z,5.80
2019-05-06T22:33:24.974Z,5.80
2019-05-06T22:35:54.966Z,5.80
2019-05-06T22:38:23.554Z,5.80
2019-05-06T22:40:53.011Z,5.80
2019-05-06T22:43:22.008Z,5.80
2019-05-06T22:45:53.194Z,5.80
2019-05-06T22:48:22.183Z,5.80
2019-05-06T22:50:52.923Z,5.80
2019-05-06T22:53:22.187Z,5.80
2019-05-06T22:55:51.653Z,5.70
2019-05-06T22:58:22.675Z,5.70
2019-05-06T23:00:53.713Z,5.70
2019-05-06T23:03:31.722Z,5.80
2019-05-06T23:06:02.417Z,5.70
2019-05-06T23:08:32.467Z,5.70
2019-05-06T23:11:01.475Z,5.70
2019-05-06T23:13:30.068Z,5.70
2019-05-06T23:15:58.627Z,5.70
2019-05-06T23:18:27.291Z,5.70
2019-05-06T23:20:55.832Z,5.70
2019-05-06T23:23:24.389Z,5.70
2019-05-06T23:26:12.959Z,5.70
2019-05-06T23:28:41.610Z,5.70
2019-05-06T23:31:11.497Z,5.70
2019-05-06T23:33:40.018Z,5.70
2019-05-06T23:36:08.601Z,5.60
2019-05-06T23:39:13.386Z,5.60
2019-05-06T23:42:18.242Z,5.60
2019-05-06T23:45:26.095Z,5.60
2019-05-06T23:48:30.981Z,5.60
2019-05-06T23:51:36.151Z,5.60
2019-05-06T23:54:42.753Z,5.60
2019-05-06T23:57:09.873Z,5.60
2019-05-06T23:59:39.090Z,5.60
